createdAt,value
2023-03-10T00:01:46.066Z,958.41
2023-03-10T00:06:48.313Z,958.28
2023-03-10T00:11:52.545Z,958.32
2023-03-10T00:16:56.671Z,958.12
2023-03-10T00:22:00.852Z,958.01
2023-03-10T00:27:04.947Z,957.97
2023-03-10T00:32:09.218Z,957.95
2023-03-10T00:37:13.295Z,957.89
2023-03-10T00:42:17.474Z,957.70
2023-03-10T00:47:21.678Z,957.53
2023-03-10T00:52:25.757Z,957.52
2023-03-10T00:57:29.955Z,957.49
2023-03-10T01:02:34.112Z,957.55
2023-03-10T01:07:38.255Z,957.70
2023-03-10T01:12:42.428Z,957.72
2023-03-10T01:17:46.604Z,958.04
2023-03-10T01:22:50.766Z,958.06
2023-03-10T01:27:54.895Z,958.15
2023-03-10T01:32:59.091Z,958.19
2023-03-10T01:38:03.226Z,958.33
2023-03-10T01:43:07.539Z,958.35
2023-03-10T01:48:11.540Z,958.53
2023-03-10T01:53:13.818Z,958.73
2023-03-10T01:58:18.012Z,958.78
2023-03-10T02:03:22.182Z,958.89
2023-03-10T02:08:26.312Z,959.05
2023-03-10T02:13:28.590Z,959.14
2023-03-10T02:18:32.758Z,959.06
2023-03-10T02:23:38.479Z,959.04
2023-03-10T02:28:41.095Z,959.13
2023-03-10T02:33:45.246Z,959.03
2023-03-10T02:38:49.397Z,958.97
2023-03-10T02:43:53.594Z,959.02
2023-03-10T02:48:57.718Z,959.10
2023-03-10T02:54:01.882Z,959.07
2023-03-10T02:59:06.058Z,959.13
2023-03-10T03:04:10.256Z,959.10
2023-03-10T03:09:14.357Z,959.05
2023-03-10T03:14:19.577Z,959.03
2023-03-10T03:19:22.708Z,959.03
2023-03-10T03:24:26.859Z,958.99
2023-03-10T03:29:31.000Z,959.09
2023-03-10T03:34:35.178Z,959.07
2023-03-10T03:39:39.431Z,959.16
2023-03-10T03:44:43.510Z,959.07
2023-03-10T03:49:47.645Z,959.06
2023-03-10T03:54:51.855Z,959.16
2023-03-10T03:59:54.128Z,959.26
2023-03-10T04:04:58.233Z,959.26
2023-03-10T04:10:00.603Z,958.98
2023-03-10T04:15:04.657Z,959.06
2023-03-10T04:20:08.977Z,959.11
2023-03-10T04:25:13.020Z,959.08
2023-03-10T04:30:17.164Z,959.10
2023-03-10T04:35:21.326Z,959.13
2023-03-10T04:40:25.522Z,959.10
2023-03-10T04:45:29.645Z,959.35
2023-03-10T04:50:33.835Z,959.16
2023-03-10T04:55:38.007Z,959.10
2023-03-10T05:05:46.317Z,959.02
2023-03-10T05:10:50.473Z,959.05
2023-03-10T05:15:54.655Z,959.09
2023-03-10T05:20:58.811Z,959.02
2023-03-10T05:26:02.935Z,958.98
2023-03-10T05:31:07.143Z,959.01
2023-03-10T05:36:11.343Z,959.03
2023-03-10T05:41:13.773Z,959.16
2023-03-10T05:46:17.728Z,959.29
2023-03-10T05:51:21.898Z,959.41
2023-03-10T05:56:26.065Z,959.44
2023-03-10T06:01:28.290Z,959.72
2023-03-10T06:06:32.481Z,959.90
2023-03-10T06:11:34.749Z,960.00
2023-03-10T06:16:38.977Z,960.16
2023-03-10T06:21:43.076Z,960.19
2023-03-10T06:26:47.217Z,960.40
2023-03-10T06:31:51.431Z,960.59
2023-03-10T06:36:55.564Z,960.74
2023-03-10T06:41:59.898Z,960.84
2023-03-10T06:47:03.881Z,961.06
2023-03-10T06:52:08.063Z,961.12
2023-03-10T06:57:12.213Z,961.28
2023-03-10T07:02:16.359Z,961.32
2023-03-10T07:07:20.511Z,961.43
2023-03-10T07:12:24.652Z,961.63
2023-03-10T07:17:28.846Z,961.69
2023-03-10T07:22:32.990Z,961.71
2023-03-10T07:27:37.143Z,961.77
2023-03-10T07:32:41.457Z,961.75
2023-03-10T07:37:45.502Z,961.79
2023-03-10T07:42:49.641Z,961.83
2023-03-10T07:47:53.832Z,961.78
2023-03-10T07:52:57.982Z,961.72
2023-03-10T07:58:02.163Z,961.87
2023-03-10T08:03:04.426Z,961.81
2023-03-10T08:08:08.545Z,961.85
2023-03-10T08:13:10.850Z,961.75
2023-03-10T08:18:14.994Z,961.81
2023-03-10T08:23:19.164Z,961.82
2023-03-10T08:28:23.364Z,961.81
2023-03-10T08:33:27.478Z,961.83
2023-03-10T08:38:31.640Z,961.80
2023-03-10T08:43:35.797Z,961.92
2023-03-10T08:48:42.644Z,961.94
2023-03-10T08:53:44.155Z,962.05
2023-03-10T08:58:48.306Z,962.17
2023-03-10T09:03:52.473Z,962.40
2023-03-10T09:08:56.659Z,962.79
2023-03-10T09:14:00.935Z,963.25
2023-03-10T09:19:04.938Z,963.29
2023-03-10T09:24:09.102Z,963.53
2023-03-10T09:29:13.265Z,963.73
2023-03-10T09:34:17.438Z,963.89
2023-03-10T09:39:21.569Z,963.93
2023-03-10T09:44:25.785Z,964.05
2023-03-10T09:49:29.910Z,964.02
2023-03-10T09:54:34.068Z,964.07
2023-03-10T09:59:36.436Z,964.29
2023-03-10T10:04:40.623Z,964.79
2023-03-10T10:09:44.693Z,964.93
2023-03-10T10:14:56.661Z,965.25
2023-03-10T10:19:51.060Z,965.25
2023-03-10T10:24:55.261Z,965.48
2023-03-10T10:29:59.428Z,965.71
2023-03-10T10:35:03.561Z,965.72
2023-03-10T10:40:09.347Z,965.61
2023-03-10T10:45:11.871Z,965.92
2023-03-10T10:50:17.902Z,966.23
2023-03-10T10:55:20.194Z,966.40
2023-03-10T11:00:24.362Z,966.30
2023-03-10T11:05:28.530Z,966.31
2023-03-10T11:10:32.721Z,966.30
2023-03-10T11:15:36.978Z,966.35
2023-03-10T11:20:41.001Z,966.40
2023-03-10T11:25:45.193Z,966.24
2023-03-10T11:30:49.372Z,966.37
2023-03-10T11:35:53.530Z,966.37
2023-03-10T11:40:57.639Z,966.32
2023-03-10T11:46:01.840Z,966.41
2023-03-10T11:51:05.973Z,966.54
2023-03-10T11:56:10.148Z,966.59
2023-03-10T12:01:12.397Z,966.56
2023-03-10T12:06:16.565Z,966.38
2023-03-10T12:11:18.865Z,966.14
2023-03-10T12:16:23.152Z,965.79
2023-03-10T12:21:27.245Z,965.56
2023-03-10T12:26:31.341Z,965.30
2023-03-10T12:31:35.625Z,965.34
2023-03-10T12:36:39.650Z,965.10
2023-03-10T12:41:43.780Z,965.01
2023-03-10T12:46:48.109Z,964.86
2023-03-10T12:51:52.103Z,964.63
2023-03-10T12:56:56.264Z,964.49
2023-03-10T13:02:00.494Z,964.20
2023-03-10T13:07:04.637Z,964.03
2023-03-10T13:12:09.022Z,964.25
2023-03-10T13:17:12.921Z,964.52
2023-03-10T13:22:17.122Z,964.58
2023-03-10T13:27:22.489Z,964.73
2023-03-10T13:32:25.511Z,964.77
2023-03-10T13:37:29.610Z,964.85
2023-03-10T13:42:43.450Z,964.61
2023-03-10T13:47:37.876Z,964.42
2023-03-10T13:52:42.082Z,964.35
2023-03-10T13:57:44.448Z,964.33
2023-03-10T14:02:48.502Z,964.31
2023-03-10T14:07:52.669Z,964.28
2023-03-10T14:12:54.941Z,964.25
2023-03-10T14:17:59.061Z,964.12
2023-03-10T14:23:03.295Z,963.86
2023-03-10T14:28:07.396Z,963.88
2023-03-10T14:33:11.623Z,963.94
2023-03-10T14:38:15.719Z,963.84
2023-03-10T14:43:19.899Z,963.81
2023-03-10T14:48:24.049Z,963.68
2023-03-10T14:53:28.202Z,963.79
2023-03-10T14:58:32.380Z,963.94
2023-03-10T15:03:36.539Z,964.30
2023-03-10T15:08:40.699Z,964.29
2023-03-10T15:13:44.885Z,964.56
2023-03-10T15:18:49.008Z,964.78
2023-03-10T15:23:53.202Z,964.89
2023-03-10T15:28:57.320Z,965.07
2023-03-10T15:34:01.529Z,965.09
2023-03-10T15:39:05.664Z,965.34
2023-03-10T15:44:09.799Z,965.31
2023-03-10T15:49:13.997Z,965.41
2023-03-10T15:54:18.155Z,965.42
2023-03-10T15:59:20.425Z,965.44
2023-03-10T16:04:24.669Z,965.38
2023-03-10T16:09:26.862Z,965.51
2023-03-10T16:14:31.080Z,965.62
2023-03-10T16:19:35.184Z,965.50
2023-03-10T16:24:39.329Z,965.56
2023-03-10T16:29:43.528Z,965.70
2023-03-10T16:34:47.676Z,965.59
2023-03-10T16:39:51.804Z,966.04
2023-03-10T16:44:56.013Z,966.91
2023-03-10T16:50:00.194Z,967.92
2023-03-10T16:55:04.316Z,968.74
2023-03-10T17:00:08.488Z,969.54
2023-03-10T17:05:15.073Z,970.19
2023-03-10T17:10:16.799Z,970.86
2023-03-10T17:15:20.972Z,971.45
2023-03-10T17:20:25.142Z,972.53
2023-03-10T17:25:29.318Z,973.01
2023-03-10T17:30:33.448Z,973.59
2023-03-10T17:35:37.677Z,974.20
2023-03-10T17:40:41.822Z,974.57
2023-03-10T17:45:45.969Z,975.04
2023-03-10T17:50:50.145Z,975.06
2023-03-10T17:55:52.380Z,975.30
2023-03-10T18:00:56.531Z,975.58
2023-03-10T18:05:58.847Z,975.97
2023-03-10T18:11:03.000Z,976.37
2023-03-10T18:16:07.251Z,976.73
2023-03-10T18:21:11.349Z,976.97
2023-03-10T18:26:15.488Z,977.27
2023-03-10T18:31:21.722Z,977.81
2023-03-10T18:36:23.867Z,977.87
2023-03-10T18:41:27.982Z,978.24
2023-03-10T18:46:32.217Z,978.53
2023-03-10T18:51:36.316Z,978.74
2023-03-10T18:56:40.506Z,979.04
2023-03-10T19:01:44.675Z,979.19
2023-03-10T19:06:48.809Z,979.39
2023-03-10T19:11:53.099Z,979.58
2023-03-10T19:16:57.126Z,979.86
2023-03-10T19:22:01.351Z,980.00
2023-03-10T19:27:05.485Z,980.12
2023-03-10T19:32:09.648Z,980.32
2023-03-10T19:37:13.840Z,980.51
2023-03-10T19:42:17.972Z,980.65
2023-03-10T19:47:22.137Z,980.85
2023-03-10T19:52:24.468Z,981.23
2023-03-10T19:57:28.597Z,981.23
2023-03-10T20:02:32.783Z,981.58
2023-03-10T20:07:35.023Z,981.58
2023-03-10T20:12:39.172Z,981.75
2023-03-10T20:17:43.357Z,981.91
2023-03-10T20:22:47.502Z,981.95
2023-03-10T20:27:51.706Z,982.15
2023-03-10T20:32:55.898Z,982.19
2023-03-10T20:37:59.989Z,982.24
2023-03-10T20:43:04.211Z,982.42
2023-03-10T20:48:08.318Z,982.30
2023-03-10T20:53:12.528Z,982.50
2023-03-10T20:58:16.687Z,982.59
2023-03-10T21:03:20.839Z,982.64
2023-03-10T21:08:25.017Z,982.70
2023-03-10T21:13:29.180Z,982.86
2023-03-10T21:18:33.333Z,982.92
2023-03-10T21:23:37.506Z,983.08
2023-03-10T21:28:41.708Z,983.14
2023-03-10T21:33:45.837Z,983.10
2023-03-10T21:38:50.082Z,983.22
2023-03-10T21:43:54.200Z,983.30
2023-03-10T21:48:58.346Z,983.27
2023-03-10T21:54:00.726Z,983.47
2023-03-10T21:59:04.803Z,983.55
2023-03-10T22:04:07.077Z,983.62
2023-03-10T22:09:11.226Z,983.79
2023-03-10T22:19:19.524Z,984.08
2023-03-10T22:24:23.693Z,984.10
2023-03-10T22:29:27.906Z,984.15
2023-03-10T22:34:32.022Z,984.23
2023-03-10T22:39:34.326Z,984.23
2023-03-10T22:44:38.483Z,984.40
2023-03-10T22:49:42.624Z,984.52
2023-03-10T22:54:46.780Z,984.66
2023-03-10T22:59:50.983Z,984.82
2023-03-10T23:04:55.152Z,984.87
2023-03-10T23:09:59.342Z,984.96
2023-03-10T23:15:09.362Z,985.16
2023-03-10T23:20:07.654Z,985.27
2023-03-10T23:25:12.322Z,985.34
2023-03-10T23:30:16.095Z,985.49
2023-03-10T23:35:20.134Z,985.44
2023-03-10T23:40:24.330Z,985.64
2023-03-10T23:45:28.485Z,985.63
2023-03-10T23:50:32.622Z,985.86
2023-03-10T23:55:34.894Z,985.98
